sensor_id;sensor_type;location;lat;lon;timestamp;pressure;altitude;pressure_sealevel;temperature;humidity
1652;BME280;823;49.028;8.454;2023-04-15T00:00:26;99489.06;;;9.51;49.95
1652;BME280;823;49.028;8.454;2023-04-15T00:05:30;99488.50;;;9.45;50.32
1652;BME280;823;49.028;8.454;2023-04-15T00:10:31;99487.91;;;9.38;50.44
1652;BME280;823;49.028;8.454;2023-04-15T00:15:31;99483.13;;;9.29;50.41
1652;BME280;823;49.028;8.454;2023-04-15T00:20:33;99482.44;;;9.25;50.21
1652;BME280;823;49.028;8.454;2023-04-15T00:25:33;99482.06;;;9.14;50.82
1652;BME280;823;49.028;8.454;2023-04-15T00:30:33;99480.31;;;9.14;51.29
1652;BME280;823;49.028;8.454;2023-04-15T00:35:34;99479.56;;;9.11;51.35
1652;BME280;823;49.028;8.454;2023-04-15T00:40:36;99478.88;;;9.07;51.15
1652;BME280;823;49.028;8.454;2023-04-15T00:45:36;99465.25;;;9.03;51.28
1652;BME280;823;49.028;8.454;2023-04-15T00:50:37;99471.44;;;8.99;51.26
1652;BME280;823;49.028;8.454;2023-04-15T00:55:38;99466.56;;;8.93;51.73
1652;BME280;823;49.028;8.454;2023-04-15T01:00:39;99464.22;;;8.87;51.50
1652;BME280;823;49.028;8.454;2023-04-15T01:05:40;99471.41;;;8.79;51.12
1652;BME280;823;49.028;8.454;2023-04-15T01:10:41;99480.00;;;8.79;51.13
1652;BME280;823;49.028;8.454;2023-04-15T01:15:41;99478.47;;;8.75;50.78
1652;BME280;823;49.028;8.454;2023-04-15T01:20:42;99479.34;;;8.74;51.40
1652;BME280;823;49.028;8.454;2023-04-15T01:25:43;99470.88;;;8.71;51.93
1652;BME280;823;49.028;8.454;2023-04-15T01:30:44;99468.69;;;8.61;52.19
1652;BME280;823;49.028;8.454;2023-04-15T01:35:44;99467.97;;;8.58;52.14
1652;BME280;823;49.028;8.454;2023-04-15T01:40:45;99457.72;;;8.56;52.19
1652;BME280;823;49.028;8.454;2023-04-15T01:45:45;99463.72;;;8.57;51.71
1652;BME280;823;49.028;8.454;2023-04-15T01:50:46;99471.63;;;8.52;51.87
1652;BME280;823;49.028;8.454;2023-04-15T01:55:46;99474.44;;;8.46;52.58
1652;BME280;823;49.028;8.454;2023-04-15T02:00:46;99473.84;;;8.38;52.14
1652;BME280;823;49.028;8.454;2023-04-15T02:05:47;99468.94;;;8.31;52.43
1652;BME280;823;49.028;8.454;2023-04-15T02:10:48;99469.16;;;8.03;52.31
1652;BME280;823;49.028;8.454;2023-04-15T02:15:49;99477.16;;;7.95;52.49
1652;BME280;823;49.028;8.454;2023-04-15T02:20:51;99466.38;;;7.86;52.71
1652;BME280;823;49.028;8.454;2023-04-15T02:25:51;99468.88;;;7.87;52.80
1652;BME280;823;49.028;8.454;2023-04-15T02:30:52;99471.47;;;7.87;53.35
1652;BME280;823;49.028;8.454;2023-04-15T02:35:53;99471.41;;;7.89;54.07
1652;BME280;823;49.028;8.454;2023-04-15T02:40:54;99486.16;;;7.83;54.01
1652;BME280;823;49.028;8.454;2023-04-15T02:45:54;99490.59;;;7.80;54.18
1652;BME280;823;49.028;8.454;2023-04-15T02:51:13;99481.88;;;7.84;53.63
1652;BME280;823;49.028;8.454;2023-04-15T02:56:14;99484.56;;;7.81;53.77
1652;BME280;823;49.028;8.454;2023-04-15T03:01:15;99493.06;;;7.83;53.88
1652;BME280;823;49.028;8.454;2023-04-15T03:06:15;99489.81;;;7.78;53.86
1652;BME280;823;49.028;8.454;2023-04-15T03:11:15;99489.09;;;7.74;53.99
1652;BME280;823;49.028;8.454;2023-04-15T03:16:16;99493.63;;;7.67;54.18
1652;BME280;823;49.028;8.454;2023-04-15T03:21:16;99495.97;;;7.74;54.00
1652;BME280;823;49.028;8.454;2023-04-15T03:26:30;99493.50;;;7.71;54.00
1652;BME280;823;49.028;8.454;2023-04-15T03:31:31;99480.00;;;7.64;53.95
1652;BME280;823;49.028;8.454;2023-04-15T03:36:31;99482.88;;;7.56;53.74
1652;BME280;823;49.028;8.454;2023-04-15T03:41:34;99495.03;;;7.51;54.26
1652;BME280;823;49.028;8.454;2023-04-15T03:46:35;99491.66;;;7.50;54.21
1652;BME280;823;49.028;8.454;2023-04-15T03:51:35;99486.53;;;7.49;54.66
1652;BME280;823;49.028;8.454;2023-04-15T03:56:36;99492.94;;;7.37;54.87
1652;BME280;823;49.028;8.454;2023-04-15T04:01:36;99490.38;;;7.37;54.36
1652;BME280;823;49.028;8.454;2023-04-15T04:06:36;99494.00;;;7.31;54.36
1652;BME280;823;49.028;8.454;2023-04-15T04:11:37;99500.03;;;7.30;54.58
1652;BME280;823;49.028;8.454;2023-04-15T04:16:37;99490.09;;;7.20;54.38
1652;BME280;823;49.028;8.454;2023-04-15T04:21:37;99510.34;;;7.04;54.48
1652;BME280;823;49.028;8.454;2023-04-15T04:26:38;99507.91;;;6.99;54.75
1652;BME280;823;49.028;8.454;2023-04-15T04:31:39;99509.69;;;6.97;54.41
1652;BME280;823;49.028;8.454;2023-04-15T04:36:39;99516.94;;;6.86;55.05
1652;BME280;823;49.028;8.454;2023-04-15T04:41:40;99515.34;;;6.81;54.94
1652;BME280;823;49.028;8.454;2023-04-15T04:46:40;99514.25;;;6.89;54.88
1652;BME280;823;49.028;8.454;2023-04-15T04:51:41;99518.50;;;6.90;55.09
1652;BME280;823;49.028;8.454;2023-04-15T04:56:41;99515.00;;;6.92;55.11
1652;BME280;823;49.028;8.454;2023-04-15T05:01:41;99521.72;;;6.96;55.15
1652;BME280;823;49.028;8.454;2023-04-15T05:06:42;99531.03;;;6.99;55.37
1652;BME280;823;49.028;8.454;2023-04-15T05:11:42;99529.88;;;7.09;54.83
1652;BME280;823;49.028;8.454;2023-04-15T05:16:42;99536.59;;;7.13;54.97
1652;BME280;823;49.028;8.454;2023-04-15T05:21:43;99542.63;;;7.12;55.53
1652;BME280;823;49.028;8.454;2023-04-15T05:26:43;99541.34;;;7.26;55.22
1652;BME280;823;49.028;8.454;2023-04-15T05:31:44;99534.94;;;7.38;55.12
1652;BME280;823;49.028;8.454;2023-04-15T05:36:44;99543.19;;;7.47;55.42
1652;BME280;823;49.028;8.454;2023-04-15T05:41:44;99552.00;;;7.65;55.50
1652;BME280;823;49.028;8.454;2023-04-15T05:46:45;99547.28;;;7.78;55.76
1652;BME280;823;49.028;8.454;2023-04-15T05:51:46;99550.91;;;7.98;55.47
1652;BME280;823;49.028;8.454;2023-04-15T05:56:47;99552.97;;;8.12;55.29
1652;BME280;823;49.028;8.454;2023-04-15T06:01:48;99548.13;;;8.26;54.30
1652;BME280;823;49.028;8.454;2023-04-15T06:06:49;99553.50;;;8.45;54.18
1652;BME280;823;49.028;8.454;2023-04-15T06:11:50;99548.34;;;8.67;53.76
1652;BME280;823;49.028;8.454;2023-04-15T06:16:51;99561.03;;;8.74;52.91
1652;BME280;823;49.028;8.454;2023-04-15T06:21:51;99552.16;;;8.81;52.52
1652;BME280;823;49.028;8.454;2023-04-15T06:26:51;99559.94;;;9.01;52.67
1652;BME280;823;49.028;8.454;2023-04-15T06:31:51;99558.59;;;9.13;52.54
1652;BME280;823;49.028;8.454;2023-04-15T06:36:52;99553.25;;;9.38;52.76
1652;BME280;823;49.028;8.454;2023-04-15T06:41:53;99563.22;;;9.68;52.54
1652;BME280;823;49.028;8.454;2023-04-15T06:46:54;99568.72;;;10.00;51.55
1652;BME280;823;49.028;8.454;2023-04-15T06:51:54;99561.91;;;10.18;50.77
1652;BME280;823;49.028;8.454;2023-04-15T06:56:54;99563.03;;;10.32;50.49
1652;BME280;823;49.028;8.454;2023-04-15T07:01:55;99565.84;;;10.46;50.54
1652;BME280;823;49.028;8.454;2023-04-15T07:06:55;99570.19;;;10.65;49.47
1652;BME280;823;49.028;8.454;2023-04-15T07:11:56;99569.88;;;10.90;48.96
1652;BME280;823;49.028;8.454;2023-04-15T07:16:56;99569.63;;;11.31;48.23
1652;BME280;823;49.028;8.454;2023-04-15T07:21:57;99560.06;;;11.67;48.11
1652;BME280;823;49.028;8.454;2023-04-15T07:26:57;99567.59;;;12.06;45.62
1652;BME280;823;49.028;8.454;2023-04-15T07:31:58;99565.66;;;12.43;46.41
1652;BME280;823;49.028;8.454;2023-04-15T07:36:58;99570.91;;;12.74;45.26
1652;BME280;823;49.028;8.454;2023-04-15T07:41:59;99568.44;;;13.03;43.99
1652;BME280;823;49.028;8.454;2023-04-15T07:47:01;99565.22;;;13.29;44.37
1652;BME280;823;49.028;8.454;2023-04-15T07:52:02;99567.84;;;13.44;42.64
1652;BME280;823;49.028;8.454;2023-04-15T07:57:02;99562.53;;;13.76;42.10
1652;BME280;823;49.028;8.454;2023-04-15T08:02:03;99566.34;;;13.99;41.61
1652;BME280;823;49.028;8.454;2023-04-15T08:07:03;99557.06;;;14.24;40.33
1652;BME280;823;49.028;8.454;2023-04-15T08:12:04;99559.56;;;14.25;41.83
1652;BME280;823;49.028;8.454;2023-04-15T08:17:04;99556.00;;;14.55;39.30
1652;BME280;823;49.028;8.454;2023-04-15T08:22:05;99557.16;;;14.78;39.99
1652;BME280;823;49.028;8.454;2023-04-15T08:27:06;99565.63;;;15.09;39.23
1652;BME280;823;49.028;8.454;2023-04-15T08:32:07;99566.63;;;15.34;38.37
1652;BME280;823;49.028;8.454;2023-04-15T08:37:08;99568.91;;;15.52;38.29
1652;BME280;823;49.028;8.454;2023-04-15T08:42:15;99568.09;;;15.51;39.28
1652;BME280;823;49.028;8.454;2023-04-15T08:47:19;99564.13;;;15.71;38.64
1652;BME280;823;49.028;8.454;2023-04-15T08:52:20;99573.97;;;15.93;38.58
1652;BME280;823;49.028;8.454;2023-04-15T08:57:25;99563.44;;;15.95;37.82
1652;BME280;823;49.028;8.454;2023-04-15T09:02:26;99571.13;;;16.22;37.74
1652;BME280;823;49.028;8.454;2023-04-15T09:07:27;99572.75;;;16.36;38.06
1652;BME280;823;49.028;8.454;2023-04-15T09:12:27;99572.53;;;16.52;37.31
1652;BME280;823;49.028;8.454;2023-04-15T09:17:27;99581.59;;;16.83;36.14
1652;BME280;823;49.028;8.454;2023-04-15T09:22:31;99578.75;;;16.99;36.62
1652;BME280;823;49.028;8.454;2023-04-15T09:27:35;99581.41;;;17.35;36.48
1652;BME280;823;49.028;8.454;2023-04-15T09:32:53;99592.38;;;17.51;35.67
1652;BME280;823;49.028;8.454;2023-04-15T09:38:12;99596.63;;;17.52;34.03
1652;BME280;823;49.028;8.454;2023-04-15T09:43:12;99605.22;;;17.66;35.09
1652;BME280;823;49.028;8.454;2023-04-15T09:48:18;99608.84;;;17.87;35.31
1652;BME280;823;49.028;8.454;2023-04-15T09:53:23;99615.72;;;17.88;35.09
1652;BME280;823;49.028;8.454;2023-04-15T09:58:25;99608.31;;;18.18;34.87
1652;BME280;823;49.028;8.454;2023-04-15T10:03:35;99604.13;;;18.38;34.02
1652;BME280;823;49.028;8.454;2023-04-15T10:08:37;99610.91;;;18.41;33.38
1652;BME280;823;49.028;8.454;2023-04-15T10:13:37;99611.28;;;18.36;33.48
1652;BME280;823;49.028;8.454;2023-04-15T10:18:44;99611.53;;;18.44;33.37
1652;BME280;823;49.028;8.454;2023-04-15T10:23:44;99611.97;;;18.38;33.16
1652;BME280;823;49.028;8.454;2023-04-15T10:28:45;99610.31;;;18.60;33.73
1652;BME280;823;49.028;8.454;2023-04-15T10:33:49;99609.13;;;18.64;33.28
1652;BME280;823;49.028;8.454;2023-04-15T10:38:51;99616.47;;;18.70;32.78
1652;BME280;823;49.028;8.454;2023-04-15T10:43:53;99625.16;;;18.70;31.40
1652;BME280;823;49.028;8.454;2023-04-15T10:48:54;99622.41;;;18.83;32.32
1652;BME280;823;49.028;8.454;2023-04-15T10:54:00;99633.38;;;18.88;31.21
1652;BME280;823;49.028;8.454;2023-04-15T10:59:04;99624.25;;;19.15;31.76
1652;BME280;823;49.028;8.454;2023-04-15T11:04:04;99628.00;;;19.01;31.23
1652;BME280;823;49.028;8.454;2023-04-15T11:09:05;99633.00;;;18.93;30.72
1652;BME280;823;49.028;8.454;2023-04-15T11:14:14;99640.44;;;19.20;31.32
1652;BME280;823;49.028;8.454;2023-04-15T11:19:15;99644.75;;;19.43;30.96
1652;BME280;823;49.028;8.454;2023-04-15T11:24:24;99654.50;;;19.19;30.16
1652;BME280;823;49.028;8.454;2023-04-15T11:29:30;99644.63;;;19.44;30.38
1652;BME280;823;49.028;8.454;2023-04-15T11:34:31;99651.72;;;19.53;29.65
1652;BME280;823;49.028;8.454;2023-04-15T11:39:31;99651.03;;;19.51;30.28
1652;BME280;823;49.028;8.454;2023-04-15T11:44:31;99647.41;;;19.64;28.05
1652;BME280;823;49.028;8.454;2023-04-15T11:49:32;99651.63;;;19.76;29.18
1652;BME280;823;49.028;8.454;2023-04-15T11:54:33;99664.16;;;19.72;29.72
1652;BME280;823;49.028;8.454;2023-04-15T11:59:41;99668.38;;;19.64;29.63
1652;BME280;823;49.028;8.454;2023-04-15T12:04:41;99665.69;;;19.75;30.35
1652;BME280;823;49.028;8.454;2023-04-15T12:09:42;99679.72;;;19.32;29.08
1652;BME280;823;49.028;8.454;2023-04-15T12:14:42;99683.16;;;18.88;28.06
1652;BME280;823;49.028;8.454;2023-04-15T12:19:44;99686.72;;;18.65;28.93
1652;BME280;823;49.028;8.454;2023-04-15T12:24:44;99701.69;;;18.85;29.45
1652;BME280;823;49.028;8.454;2023-04-15T12:29:47;99700.00;;;19.18;29.29
1652;BME280;823;49.028;8.454;2023-04-15T12:34:51;99696.88;;;19.36;25.85
1652;BME280;823;49.028;8.454;2023-04-15T12:39:53;99705.25;;;19.62;24.02
1652;BME280;823;49.028;8.454;2023-04-15T12:44:53;99708.06;;;19.70;24.42
1652;BME280;823;49.028;8.454;2023-04-15T12:49:54;99719.25;;;19.72;23.41
1652;BME280;823;49.028;8.454;2023-04-15T12:54:54;99721.31;;;19.69;25.10
1652;BME280;823;49.028;8.454;2023-04-15T12:59:55;99722.66;;;19.52;25.28
1652;BME280;823;49.028;8.454;2023-04-15T13:04:55;99726.34;;;19.61;25.63
1652;BME280;823;49.028;8.454;2023-04-15T13:09:55;99727.00;;;19.42;26.46
1652;BME280;823;49.028;8.454;2023-04-15T13:14:56;99725.06;;;19.44;26.92
1652;BME280;823;49.028;8.454;2023-04-15T13:19:56;99731.25;;;18.99;27.37
1652;BME280;823;49.028;8.454;2023-04-15T13:24:56;99746.97;;;18.76;28.99
1652;BME280;823;49.028;8.454;2023-04-15T13:29:56;99742.34;;;18.91;28.91
1652;BME280;823;49.028;8.454;2023-04-15T13:34:57;99753.41;;;18.72;29.20
1652;BME280;823;49.028;8.454;2023-04-15T13:39:58;99760.28;;;18.50;29.43
1652;BME280;823;49.028;8.454;2023-04-15T13:44:58;99769.31;;;18.58;30.21
1652;BME280;823;49.028;8.454;2023-04-15T13:49:59;99773.50;;;18.60;29.97
1652;BME280;823;49.028;8.454;2023-04-15T13:54:59;99783.34;;;18.45;30.59
1652;BME280;823;49.028;8.454;2023-04-15T13:59:59;99796.91;;;18.39;30.72
1652;BME280;823;49.028;8.454;2023-04-15T14:05:00;99800.63;;;18.12;30.74
1652;BME280;823;49.028;8.454;2023-04-15T14:10:00;99806.28;;;18.30;31.05
1652;BME280;823;49.028;8.454;2023-04-15T14:15:00;99817.06;;;18.14;30.93
1652;BME280;823;49.028;8.454;2023-04-15T14:20:01;99812.47;;;17.94;30.19
1652;BME280;823;49.028;8.454;2023-04-15T14:25:02;99820.47;;;17.79;30.20
1652;BME280;823;49.028;8.454;2023-04-15T14:30:03;99823.19;;;17.78;30.24
1652;BME280;823;49.028;8.454;2023-04-15T14:35:04;99831.34;;;17.73;30.70
1652;BME280;823;49.028;8.454;2023-04-15T14:40:04;99838.88;;;17.78;30.35
1652;BME280;823;49.028;8.454;2023-04-15T14:45:05;99843.25;;;17.77;30.33
1652;BME280;823;49.028;8.454;2023-04-15T14:50:06;99844.19;;;17.76;29.17
1652;BME280;823;49.028;8.454;2023-04-15T14:55:11;99851.38;;;17.85;28.82
1652;BME280;823;49.028;8.454;2023-04-15T15:00:12;99861.34;;;17.93;29.48
1652;BME280;823;49.028;8.454;2023-04-15T15:05:12;99861.06;;;17.72;29.17
1652;BME280;823;49.028;8.454;2023-04-15T15:10:12;99870.69;;;17.72;28.77
1652;BME280;823;49.028;8.454;2023-04-15T15:15:13;99869.25;;;17.67;28.66
1652;BME280;823;49.028;8.454;2023-04-15T15:20:13;99883.91;;;17.57;28.99
1652;BME280;823;49.028;8.454;2023-04-15T15:25:15;99883.81;;;17.59;28.62
1652;BME280;823;49.028;8.454;2023-04-15T15:30:16;99894.75;;;17.64;29.25
1652;BME280;823;49.028;8.454;2023-04-15T15:35:16;99901.13;;;17.73;28.74
1652;BME280;823;49.028;8.454;2023-04-15T15:40:17;99909.50;;;17.65;29.02
1652;BME280;823;49.028;8.454;2023-04-15T15:45:17;99913.38;;;17.72;29.60
1652;BME280;823;49.028;8.454;2023-04-15T15:50:19;99932.81;;;17.68;30.91
1652;BME280;823;49.028;8.454;2023-04-15T15:55:20;99938.31;;;17.39;32.26
1652;BME280;823;49.028;8.454;2023-04-15T16:00:20;99961.31;;;17.34;32.66
1652;BME280;823;49.028;8.454;2023-04-15T16:05:22;99981.66;;;16.63;37.96
1652;BME280;823;49.028;8.454;2023-04-15T16:10:22;99982.59;;;16.34;39.54
1652;BME280;823;49.028;8.454;2023-04-15T16:15:24;100004.50;;;16.32;40.36
1652;BME280;823;49.028;8.454;2023-04-15T16:20:25;100012.63;;;16.27;40.35
1652;BME280;823;49.028;8.454;2023-04-15T16:25:27;100024.03;;;16.12;41.36
1652;BME280;823;49.028;8.454;2023-04-15T16:30:27;100033.44;;;16.14;42.62
1652;BME280;823;49.028;8.454;2023-04-15T16:35:28;100037.06;;;15.83;44.22
1652;BME280;823;49.028;8.454;2023-04-15T16:40:28;100053.53;;;15.69;44.86
1652;BME280;823;49.028;8.454;2023-04-15T16:45:29;100063.31;;;15.35;46.39
1652;BME280;823;49.028;8.454;2023-04-15T16:50:30;100083.84;;;15.25;48.80
1652;BME280;823;49.028;8.454;2023-04-15T16:55:30;100091.41;;;15.00;50.06
1652;BME280;823;49.028;8.454;2023-04-15T17:00:31;100102.97;;;14.62;52.22
1652;BME280;823;49.028;8.454;2023-04-15T17:05:32;100112.38;;;14.48;53.95
1652;BME280;823;49.028;8.454;2023-04-15T17:10:32;100117.19;;;14.23;55.54
1652;BME280;823;49.028;8.454;2023-04-15T17:15:33;100127.22;;;13.97;57.28
1652;BME280;823;49.028;8.454;2023-04-15T17:20:33;100137.94;;;13.56;58.71
1652;BME280;823;49.028;8.454;2023-04-15T17:25:34;100146.88;;;13.50;59.64
1652;BME280;823;49.028;8.454;2023-04-15T17:30:34;100154.13;;;13.43;60.37
1652;BME280;823;49.028;8.454;2023-04-15T17:35:35;100167.34;;;13.20;61.29
1652;BME280;823;49.028;8.454;2023-04-15T17:40:35;100169.94;;;13.39;60.75
1652;BME280;823;49.028;8.454;2023-04-15T17:45:36;100175.38;;;13.33;61.06
1652;BME280;823;49.028;8.454;2023-04-15T17:50:36;100183.91;;;13.36;61.00
1652;BME280;823;49.028;8.454;2023-04-15T17:55:37;100196.81;;;13.38;61.56
1652;BME280;823;49.028;8.454;2023-04-15T18:00:38;100207.88;;;13.41;62.05
1652;BME280;823;49.028;8.454;2023-04-15T18:05:38;100213.16;;;13.40;62.40
1652;BME280;823;49.028;8.454;2023-04-15T18:10:39;100211.91;;;13.29;63.15
1652;BME280;823;49.028;8.454;2023-04-15T18:15:39;100234.72;;;13.23;63.58
1652;BME280;823;49.028;8.454;2023-04-15T18:20:40;100243.06;;;13.10;63.95
1652;BME280;823;49.028;8.454;2023-04-15T18:25:40;100243.34;;;13.04;63.60
1652;BME280;823;49.028;8.454;2023-04-15T18:30:42;100247.47;;;12.89;63.80
1652;BME280;823;49.028;8.454;2023-04-15T18:35:42;100262.25;;;12.68;64.01
1652;BME280;823;49.028;8.454;2023-04-15T18:40:43;100253.63;;;12.47;64.45
1652;BME280;823;49.028;8.454;2023-04-15T18:45:43;100275.88;;;12.53;64.53
1652;BME280;823;49.028;8.454;2023-04-15T18:50:43;100281.19;;;12.29;65.08
1652;BME280;823;49.028;8.454;2023-04-15T18:55:44;100288.41;;;12.43;64.71
1652;BME280;823;49.028;8.454;2023-04-15T19:00:44;100297.81;;;12.46;64.97
1652;BME280;823;49.028;8.454;2023-04-15T19:05:45;100302.75;;;12.52;64.63
1652;BME280;823;49.028;8.454;2023-04-15T19:10:45;100315.00;;;12.48;64.99
1652;BME280;823;49.028;8.454;2023-04-15T19:15:47;100315.44;;;12.58;64.99
1652;BME280;823;49.028;8.454;2023-04-15T19:20:49;100317.28;;;12.56;65.26
1652;BME280;823;49.028;8.454;2023-04-15T19:25:51;100322.31;;;12.59;65.01
1652;BME280;823;49.028;8.454;2023-04-15T19:30:51;100331.75;;;12.62;65.02
1652;BME280;823;49.028;8.454;2023-04-15T19:35:52;100330.94;;;12.59;64.98
1652;BME280;823;49.028;8.454;2023-04-15T19:40:52;100335.81;;;12.47;65.02
1652;BME280;823;49.028;8.454;2023-04-15T19:45:53;100336.41;;;12.53;65.20
1652;BME280;823;49.028;8.454;2023-04-15T19:50:53;100341.47;;;12.56;65.33
1652;BME280;823;49.028;8.454;2023-04-15T19:55:55;100349.91;;;12.62;65.32
1652;BME280;823;49.028;8.454;2023-04-15T20:00:57;100344.81;;;12.58;65.60
1652;BME280;823;49.028;8.454;2023-04-15T20:05:59;100348.66;;;12.50;65.87
1652;BME280;823;49.028;8.454;2023-04-15T20:11:00;100349.44;;;12.52;66.06
1652;BME280;823;49.028;8.454;2023-04-15T20:16:00;100362.81;;;12.63;65.74
1652;BME280;823;49.028;8.454;2023-04-15T20:21:01;100353.59;;;12.56;65.78
1652;BME280;823;49.028;8.454;2023-04-15T20:26:02;100357.84;;;12.57;66.17
1652;BME280;823;49.028;8.454;2023-04-15T20:31:02;100358.97;;;12.51;66.50
1652;BME280;823;49.028;8.454;2023-04-15T20:36:03;100358.97;;;12.51;66.44
1652;BME280;823;49.028;8.454;2023-04-15T20:41:04;100362.28;;;12.55;66.08
1652;BME280;823;49.028;8.454;2023-04-15T20:46:04;100361.38;;;12.56;66.08
1652;BME280;823;49.028;8.454;2023-04-15T20:51:05;100366.22;;;12.64;65.67
1652;BME280;823;49.028;8.454;2023-04-15T20:56:05;100368.31;;;12.55;66.14
1652;BME280;823;49.028;8.454;2023-04-15T21:01:05;100374.09;;;12.62;65.93
1652;BME280;823;49.028;8.454;2023-04-15T21:06:06;100376.09;;;12.55;65.94
1652;BME280;823;49.028;8.454;2023-04-15T21:11:06;100377.84;;;12.55;66.14
1652;BME280;823;49.028;8.454;2023-04-15T21:16:06;100388.22;;;12.55;65.72
1652;BME280;823;49.028;8.454;2023-04-15T21:21:07;100387.31;;;12.56;65.82
1652;BME280;823;49.028;8.454;2023-04-15T21:26:07;100391.66;;;12.55;65.86
1652;BME280;823;49.028;8.454;2023-04-15T21:31:07;100398.72;;;12.52;66.04
1652;BME280;823;49.028;8.454;2023-04-15T21:36:08;100404.69;;;12.54;65.95
1652;BME280;823;49.028;8.454;2023-04-15T21:41:08;100404.81;;;12.51;66.04
1652;BME280;823;49.028;8.454;2023-04-15T21:46:09;100415.19;;;12.51;65.79
1652;BME280;823;49.028;8.454;2023-04-15T21:51:09;100416.09;;;12.50;66.23
1652;BME280;823;49.028;8.454;2023-04-15T21:56:10;100420.25;;;12.54;65.82
1652;BME280;823;49.028;8.454;2023-04-15T22:01:11;100430.91;;;12.48;65.92
1652;BME280;823;49.028;8.454;2023-04-15T22:06:11;100427.38;;;12.49;66.01
1652;BME280;823;49.028;8.454;2023-04-15T22:11:18;100432.34;;;12.55;65.95
1652;BME280;823;49.028;8.454;2023-04-15T22:16:23;100429.75;;;12.55;65.96
1652;BME280;823;49.028;8.454;2023-04-15T22:21:23;100445.25;;;12.56;65.73
1652;BME280;823;49.028;8.454;2023-04-15T22:26:23;100441.91;;;12.53;65.81
1652;BME280;823;49.028;8.454;2023-04-15T22:31:24;100442.09;;;12.48;65.95
1652;BME280;823;49.028;8.454;2023-04-15T22:36:24;100447.72;;;12.37;66.28
1652;BME280;823;49.028;8.454;2023-04-15T22:41:25;100452.06;;;12.37;66.24
1652;BME280;823;49.028;8.454;2023-04-15T22:46:25;100459.31;;;12.51;65.79
1652;BME280;823;49.028;8.454;2023-04-15T22:51:25;100465.53;;;12.47;65.96
1652;BME280;823;49.028;8.454;2023-04-15T22:56:27;100470.72;;;12.47;65.93
1652;BME280;823;49.028;8.454;2023-04-15T23:01:27;100466.41;;;12.46;66.17
1652;BME280;823;49.028;8.454;2023-04-15T23:06:27;100474.88;;;12.51;65.98
1652;BME280;823;49.028;8.454;2023-04-15T23:11:28;100480.19;;;12.48;66.06
1652;BME280;823;49.028;8.454;2023-04-15T23:16:28;100481.63;;;12.55;65.81
1652;BME280;823;49.028;8.454;2023-04-15T23:21:28;100483.19;;;12.59;65.62
1652;BME280;823;49.028;8.454;2023-04-15T23:26:30;100487.59;;;12.57;65.84
1652;BME280;823;49.028;8.454;2023-04-15T23:31:30;100495.38;;;12.57;66.11
1652;BME280;823;49.028;8.454;2023-04-15T23:36:31;100495.13;;;12.63;65.79
1652;BME280;823;49.028;8.454;2023-04-15T23:41:31;100490.72;;;12.65;65.72
1652;BME280;823;49.028;8.454;2023-04-15T23:46:31;100497.66;;;12.65;65.61
1652;BME280;823;49.028;8.454;2023-04-15T23:51:31;100500.19;;;12.66;65.69
1652;BME280;823;49.028;8.454;2023-04-15T23:56:32;100498.34;;;12.70;65.30
